Boynton, Illinois
Current Conditions -  °F | °C
As of 7:35 PM on Monday 24 Nov 2014 (Local Time) from KAAA Reporting Station
Overcast Overcast  
Wind Chill: 27°   Ceiling: 3100
Heat Index: 34°   Visibility: 10mi
Dew Point: 28°   Wind: 8mph
Humidity: 77%   Direction: 260°W
Pressure: 29.86"   Gusts: NA
Location:  40.3602°N, 89.4881°W
Report Text: KAAA 250135Z AUTO 26007KT 190V290 10SM BKN031 OVC038 01/M02 A2986 RMK AO2 T00121025
Loading
Personal Weather Stations






























Interactive Weather Map New forecast layout! Learn more

10-Day Weather Forecast

Advertisements
Track Severe Weather on mobile